Portada
METAR-TAF:

METAR-TAF

Aeroports :

Aeroport d'Essaouira-Mogador

Essaouira, Marroc

latitud: 31-31N, longitud: 009-47W, altitud: 15 m

Observació

L'informe es va fer fa 51 minuts, a les 09:00 UTC
Vent 8 kt del Est/Nord-Est
Temperatura 25°C
Humitat 57%
Pressió 1015 hPa
Visibilitat 10 km o més
sense núvols per sota de 1500 mi sense presència de cumulonimbus.

METAR: GMMI 260900Z 06008KT CAVOK 25/16 Q1015 NOSIG

Hora: 10:51 (09:51 UTC)

Pronòstic

L'informe es va fer fa 4 hores i 51 minuts, a les 05:00 UTC
Pronòstic vàlid del 26 a les 06 UTC al 27 a les 12 UTC
Vent 2 kt amb direcció variable
Visibilitat: 8000 m

TAF: GMMI 260500Z 2606/2712 VRB02KT 8000 NSC

Observacions i pronòstics meteorològics de més de 4000 aeroports (METAR i TAF).

Les estacions disponibles són els punts grocs i vermells al mapa.

Posi el ratolí al punt desitjat per veure el nom de l'estació.

Feu clic per veure les observacions i els pronòstics meteorològics.

Per canviar el mapa: feu clic els botons verds amb una creu de color negre per apropar; al botó verd amb un guió per allunyar la imatge; o en les fletxes verdes per a mapes adjacents.


METAR-TAF: